sensor_id;sensor_type;location;lat;lon;timestamp;P1;durP1;ratioP1;P2;durP2;ratioP2
17890;SDS011;9071;48.220;14.480;2022-12-29T00:04:52;50.87;;;31.17;;
17890;SDS011;9071;48.220;14.480;2022-12-29T00:09:56;49.23;;;28.23;;
17890;SDS011;9071;48.220;14.480;2022-12-29T00:14:58;48.50;;;28.77;;
17890;SDS011;9071;48.220;14.480;2022-12-29T00:20:17;54.00;;;31.90;;
17890;SDS011;9071;48.220;14.480;2022-12-29T00:25:38;57.20;;;31.57;;
17890;SDS011;9071;48.220;14.480;2022-12-29T00:31:10;54.27;;;31.37;;
17890;SDS011;9071;48.220;14.480;2022-12-29T00:36:31;57.53;;;30.07;;
17890;SDS011;9071;48.220;14.480;2022-12-29T00:41:38;57.70;;;31.63;;
17890;SDS011;9071;48.220;14.480;2022-12-29T00:46:58;50.70;;;29.50;;
17890;SDS011;9071;48.220;14.480;2022-12-29T00:52:04;54.57;;;30.93;;
17890;SDS011;9071;48.220;14.480;2022-12-29T00:57:09;54.70;;;30.77;;
17890;SDS011;9071;48.220;14.480;2022-12-29T01:02:12;66.17;;;36.60;;
17890;SDS011;9071;48.220;14.480;2022-12-29T01:07:14;66.47;;;38.57;;
17890;SDS011;9071;48.220;14.480;2022-12-29T01:12:17;79.87;;;40.40;;
17890;SDS011;9071;48.220;14.480;2022-12-29T01:17:40;76.97;;;39.47;;
17890;SDS011;9071;48.220;14.480;2022-12-29T01:22:42;65.03;;;37.67;;
17890;SDS011;9071;48.220;14.480;2022-12-29T01:27:46;67.10;;;35.73;;
17890;SDS011;9071;48.220;14.480;2022-12-29T01:32:48;60.53;;;35.20;;
17890;SDS011;9071;48.220;14.480;2022-12-29T01:37:51;58.87;;;34.40;;
17890;SDS011;9071;48.220;14.480;2022-12-29T01:42:54;62.80;;;36.27;;
17890;SDS011;9071;48.220;14.480;2022-12-29T01:47:57;69.87;;;36.13;;
17890;SDS011;9071;48.220;14.480;2022-12-29T01:53:03;62.20;;;35.33;;
17890;SDS011;9071;48.220;14.480;2022-12-29T01:58:09;58.27;;;33.67;;
17890;SDS011;9071;48.220;14.480;2022-12-29T02:03:13;57.50;;;33.63;;
17890;SDS011;9071;48.220;14.480;2022-12-29T02:08:16;57.67;;;32.73;;
17890;SDS011;9071;48.220;14.480;2022-12-29T02:13:20;89.93;;;33.10;;
17890;SDS011;9071;48.220;14.480;2022-12-29T02:18:25;169.27;;;36.63;;
17890;SDS011;9071;48.220;14.480;2022-12-29T02:23:41;89.70;;;33.10;;
17890;SDS011;9071;48.220;14.480;2022-12-29T02:29:14;57.23;;;29.30;;
17890;SDS011;9071;48.220;14.480;2022-12-29T02:34:40;112.13;;;32.53;;
17890;SDS011;9071;48.220;14.480;2022-12-29T02:39:50;98.37;;;33.93;;
17890;SDS011;9071;48.220;14.480;2022-12-29T02:44:59;132.63;;;33.07;;
17890;SDS011;9071;48.220;14.480;2022-12-29T02:50:08;112.03;;;32.63;;
17890;SDS011;9071;48.220;14.480;2022-12-29T02:55:16;47.33;;;27.53;;
17890;SDS011;9071;48.220;14.480;2022-12-29T03:00:18;44.27;;;26.23;;
17890;SDS011;9071;48.220;14.480;2022-12-29T03:05:32;42.53;;;24.30;;
17890;SDS011;9071;48.220;14.480;2022-12-29T03:10:59;43.70;;;25.63;;
17890;SDS011;9071;48.220;14.480;2022-12-29T03:16:05;46.80;;;25.97;;
17890;SDS011;9071;48.220;14.480;2022-12-29T03:21:16;46.90;;;25.73;;
17890;SDS011;9071;48.220;14.480;2022-12-29T03:26:44;45.20;;;23.90;;
17890;SDS011;9071;48.220;14.480;2022-12-29T03:31:48;40.40;;;23.70;;
17890;SDS011;9071;48.220;14.480;2022-12-29T03:36:55;39.43;;;23.47;;
17890;SDS011;9071;48.220;14.480;2022-12-29T03:42:03;42.47;;;24.37;;
17890;SDS011;9071;48.220;14.480;2022-12-29T03:47:09;37.03;;;22.43;;
17890;SDS011;9071;48.220;14.480;2022-12-29T03:52:13;36.70;;;21.87;;
17890;SDS011;9071;48.220;14.480;2022-12-29T03:57:15;35.87;;;21.80;;
17890;SDS011;9071;48.220;14.480;2022-12-29T04:02:17;38.80;;;22.20;;
17890;SDS011;9071;48.220;14.480;2022-12-29T04:07:20;33.47;;;19.70;;
17890;SDS011;9071;48.220;14.480;2022-12-29T04:12:22;35.90;;;21.63;;
17890;SDS011;9071;48.220;14.480;2022-12-29T04:17:24;38.60;;;21.13;;
17890;SDS011;9071;48.220;14.480;2022-12-29T04:22:27;35.23;;;21.80;;
17890;SDS011;9071;48.220;14.480;2022-12-29T04:27:30;43.00;;;24.73;;
17890;SDS011;9071;48.220;14.480;2022-12-29T04:32:32;45.37;;;24.47;;
17890;SDS011;9071;48.220;14.480;2022-12-29T04:37:35;44.33;;;24.17;;
17890;SDS011;9071;48.220;14.480;2022-12-29T04:42:37;64.40;;;23.73;;
17890;SDS011;9071;48.220;14.480;2022-12-29T04:47:39;41.13;;;23.17;;
17890;SDS011;9071;48.220;14.480;2022-12-29T04:52:42;37.43;;;21.37;;
17890;SDS011;9071;48.220;14.480;2022-12-29T04:57:44;39.37;;;22.50;;
17890;SDS011;9071;48.220;14.480;2022-12-29T05:02:47;33.77;;;20.30;;
17890;SDS011;9071;48.220;14.480;2022-12-29T05:07:50;35.77;;;21.90;;
17890;SDS011;9071;48.220;14.480;2022-12-29T05:12:52;32.97;;;19.30;;
17890;SDS011;9071;48.220;14.480;2022-12-29T05:17:54;34.93;;;19.80;;
17890;SDS011;9071;48.220;14.480;2022-12-29T05:22:57;35.97;;;19.97;;
17890;SDS011;9071;48.220;14.480;2022-12-29T05:27:59;36.03;;;20.10;;
17890;SDS011;9071;48.220;14.480;2022-12-29T05:33:01;35.67;;;21.37;;
17890;SDS011;9071;48.220;14.480;2022-12-29T05:38:07;34.80;;;20.43;;
17890;SDS011;9071;48.220;14.480;2022-12-29T05:43:10;28.63;;;18.70;;
17890;SDS011;9071;48.220;14.480;2022-12-29T05:48:12;38.43;;;21.67;;
17890;SDS011;9071;48.220;14.480;2022-12-29T05:53:15;54.33;;;23.37;;
17890;SDS011;9071;48.220;14.480;2022-12-29T05:58:17;40.80;;;22.20;;
17890;SDS011;9071;48.220;14.480;2022-12-29T06:03:20;115.67;;;26.43;;
17890;SDS011;9071;48.220;14.480;2022-12-29T06:08:24;54.53;;;26.10;;
17890;SDS011;9071;48.220;14.480;2022-12-29T06:13:26;462.80;;;59.43;;
17890;SDS011;9071;48.220;14.480;2022-12-29T06:18:28;108.33;;;33.97;;
17890;SDS011;9071;48.220;14.480;2022-12-29T06:23:32;80.17;;;33.23;;
17890;SDS011;9071;48.220;14.480;2022-12-29T06:28:34;47.73;;;27.70;;
17890;SDS011;9071;48.220;14.480;2022-12-29T06:33:36;51.50;;;28.30;;
17890;SDS011;9071;48.220;14.480;2022-12-29T06:38:39;49.63;;;28.93;;
17890;SDS011;9071;48.220;14.480;2022-12-29T06:43:41;52.83;;;29.43;;
17890;SDS011;9071;48.220;14.480;2022-12-29T06:48:43;46.40;;;28.43;;
17890;SDS011;9071;48.220;14.480;2022-12-29T06:53:47;50.47;;;29.23;;
17890;SDS011;9071;48.220;14.480;2022-12-29T06:58:49;50.73;;;28.93;;
17890;SDS011;9071;48.220;14.480;2022-12-29T07:03:51;50.00;;;29.80;;
17890;SDS011;9071;48.220;14.480;2022-12-29T07:08:54;56.13;;;31.83;;
17890;SDS011;9071;48.220;14.480;2022-12-29T07:13:57;45.20;;;28.43;;
17890;SDS011;9071;48.220;14.480;2022-12-29T07:18:59;57.17;;;31.63;;
17890;SDS011;9071;48.220;14.480;2022-12-29T07:24:03;57.47;;;33.03;;
17890;SDS011;9071;48.220;14.480;2022-12-29T07:29:05;57.03;;;35.23;;
17890;SDS011;9071;48.220;14.480;2022-12-29T07:34:07;59.80;;;34.67;;
17890;SDS011;9071;48.220;14.480;2022-12-29T07:39:11;60.43;;;36.27;;
17890;SDS011;9071;48.220;14.480;2022-12-29T07:44:13;59.23;;;35.10;;
17890;SDS011;9071;48.220;14.480;2022-12-29T07:49:15;54.00;;;32.87;;
17890;SDS011;9071;48.220;14.480;2022-12-29T07:54:18;55.10;;;35.07;;
17890;SDS011;9071;48.220;14.480;2022-12-29T07:59:22;54.27;;;34.33;;
17890;SDS011;9071;48.220;14.480;2022-12-29T08:04:24;59.97;;;35.47;;
17890;SDS011;9071;48.220;14.480;2022-12-29T08:09:28;60.60;;;36.63;;
17890;SDS011;9071;48.220;14.480;2022-12-29T08:14:30;60.20;;;36.33;;
17890;SDS011;9071;48.220;14.480;2022-12-29T08:19:32;57.60;;;39.70;;
17890;SDS011;9071;48.220;14.480;2022-12-29T08:24:35;61.47;;;38.27;;
17890;SDS011;9071;48.220;14.480;2022-12-29T08:29:37;47.60;;;28.97;;
17890;SDS011;9071;48.220;14.480;2022-12-29T08:34:39;42.03;;;26.60;;
17890;SDS011;9071;48.220;14.480;2022-12-29T08:39:42;42.80;;;26.63;;
17890;SDS011;9071;48.220;14.480;2022-12-29T08:44:45;34.90;;;21.73;;
17890;SDS011;9071;48.220;14.480;2022-12-29T08:49:46;29.73;;;20.10;;
17890;SDS011;9071;48.220;14.480;2022-12-29T08:54:50;32.80;;;22.20;;
17890;SDS011;9071;48.220;14.480;2022-12-29T08:59:52;34.13;;;23.30;;
17890;SDS011;9071;48.220;14.480;2022-12-29T09:04:54;34.67;;;22.73;;
17890;SDS011;9071;48.220;14.480;2022-12-29T09:09:58;35.27;;;23.63;;
17890;SDS011;9071;48.220;14.480;2022-12-29T09:15:00;34.40;;;22.50;;
17890;SDS011;9071;48.220;14.480;2022-12-29T09:20:03;27.37;;;20.20;;
17890;SDS011;9071;48.220;14.480;2022-12-29T09:25:07;78.70;;;24.70;;
17890;SDS011;9071;48.220;14.480;2022-12-29T09:30:11;40.83;;;20.43;;
17890;SDS011;9071;48.220;14.480;2022-12-29T09:35:15;54.97;;;20.80;;
17890;SDS011;9071;48.220;14.480;2022-12-29T09:40:24;36.13;;;19.87;;
17890;SDS011;9071;48.220;14.480;2022-12-29T09:45:31;40.03;;;20.10;;
17890;SDS011;9071;48.220;14.480;2022-12-29T09:50:38;33.90;;;18.17;;
17890;SDS011;9071;48.220;14.480;2022-12-29T09:55:45;34.40;;;19.70;;
17890;SDS011;9071;48.220;14.480;2022-12-29T10:00:52;30.33;;;18.20;;
17890;SDS011;9071;48.220;14.480;2022-12-29T10:06:00;40.40;;;20.17;;
17890;SDS011;9071;48.220;14.480;2022-12-29T10:11:12;36.73;;;19.00;;
17890;SDS011;9071;48.220;14.480;2022-12-29T10:16:26;36.70;;;19.00;;
17890;SDS011;9071;48.220;14.480;2022-12-29T10:21:37;38.10;;;21.90;;
17890;SDS011;9071;48.220;14.480;2022-12-29T10:26:51;35.03;;;21.27;;
17890;SDS011;9071;48.220;14.480;2022-12-29T10:31:54;35.73;;;18.80;;
17890;SDS011;9071;48.220;14.480;2022-12-29T10:37:01;41.07;;;19.23;;
17890;SDS011;9071;48.220;14.480;2022-12-29T10:42:08;29.00;;;15.93;;
17890;SDS011;9071;48.220;14.480;2022-12-29T10:47:16;30.60;;;17.33;;
17890;SDS011;9071;48.220;14.480;2022-12-29T10:52:21;30.87;;;16.83;;
17890;SDS011;9071;48.220;14.480;2022-12-29T10:57:27;29.80;;;18.17;;
17890;SDS011;9071;48.220;14.480;2022-12-29T11:08:08;21.23;;;12.93;;
17890;SDS011;9071;48.220;14.480;2022-12-29T11:13:15;23.00;;;13.37;;
17890;SDS011;9071;48.220;14.480;2022-12-29T11:18:20;18.20;;;12.47;;
17890;SDS011;9071;48.220;14.480;2022-12-29T11:23:25;18.00;;;12.13;;
17890;SDS011;9071;48.220;14.480;2022-12-29T11:28:33;15.33;;;10.90;;
17890;SDS011;9071;48.220;14.480;2022-12-29T11:33:35;16.13;;;10.73;;
17890;SDS011;9071;48.220;14.480;2022-12-29T11:38:39;23.63;;;10.07;;
17890;SDS011;9071;48.220;14.480;2022-12-29T11:43:44;20.13;;;10.90;;
17890;SDS011;9071;48.220;14.480;2022-12-29T11:48:48;11.20;;;7.63;;
17890;SDS011;9071;48.220;14.480;2022-12-29T11:53:51;19.13;;;10.30;;
17890;SDS011;9071;48.220;14.480;2022-12-29T11:58:58;19.87;;;11.23;;
17890;SDS011;9071;48.220;14.480;2022-12-29T12:04:38;19.00;;;11.97;;
17890;SDS011;9071;48.220;14.480;2022-12-29T12:09:42;19.77;;;12.70;;
17890;SDS011;9071;48.220;14.480;2022-12-29T12:14:51;19.63;;;12.10;;
17890;SDS011;9071;48.220;14.480;2022-12-29T12:20:00;17.03;;;11.23;;
17890;SDS011;9071;48.220;14.480;2022-12-29T12:25:12;14.13;;;10.00;;
17890;SDS011;9071;48.220;14.480;2022-12-29T12:30:22;12.73;;;9.23;;
17890;SDS011;9071;48.220;14.480;2022-12-29T12:35:26;12.73;;;9.10;;
17890;SDS011;9071;48.220;14.480;2022-12-29T12:40:41;10.60;;;6.67;;
17890;SDS011;9071;48.220;14.480;2022-12-29T12:46:01;8.47;;;6.30;;
17890;SDS011;9071;48.220;14.480;2022-12-29T12:51:25;8.03;;;6.20;;
17890;SDS011;9071;48.220;14.480;2022-12-29T13:02:01;22.93;;;10.10;;
17890;SDS011;9071;48.220;14.480;2022-12-29T13:07:19;17.77;;;9.43;;
17890;SDS011;9071;48.220;14.480;2022-12-29T13:12:35;10.20;;;5.77;;
17890;SDS011;9071;48.220;14.480;2022-12-29T13:17:44;15.83;;;6.53;;
17890;SDS011;9071;48.220;14.480;2022-12-29T13:22:54;12.20;;;6.87;;
17890;SDS011;9071;48.220;14.480;2022-12-29T13:28:02;9.07;;;6.17;;
17890;SDS011;9071;48.220;14.480;2022-12-29T13:33:16;8.80;;;5.40;;
17890;SDS011;9071;48.220;14.480;2022-12-29T13:38:24;66.60;;;9.87;;
17890;SDS011;9071;48.220;14.480;2022-12-29T13:43:31;163.87;;;15.03;;
17890;SDS011;9071;48.220;14.480;2022-12-29T13:48:39;76.33;;;12.03;;
17890;SDS011;9071;48.220;14.480;2022-12-29T13:54:11;71.63;;;10.63;;
17890;SDS011;9071;48.220;14.480;2022-12-29T13:59:21;52.93;;;8.73;;
17890;SDS011;9071;48.220;14.480;2022-12-29T14:04:30;21.43;;;7.53;;
17890;SDS011;9071;48.220;14.480;2022-12-29T14:09:45;13.07;;;6.33;;
17890;SDS011;9071;48.220;14.480;2022-12-29T14:14:49;15.53;;;7.97;;
17890;SDS011;9071;48.220;14.480;2022-12-29T14:19:53;17.73;;;8.63;;
17890;SDS011;9071;48.220;14.480;2022-12-29T14:24:55;20.47;;;10.20;;
17890;SDS011;9071;48.220;14.480;2022-12-29T14:29:57;23.97;;;10.80;;
17890;SDS011;9071;48.220;14.480;2022-12-29T14:35:36;38.83;;;12.13;;
17890;SDS011;9071;48.220;14.480;2022-12-29T14:40:40;25.50;;;11.10;;
17890;SDS011;9071;48.220;14.480;2022-12-29T14:45:42;22.07;;;10.73;;
17890;SDS011;9071;48.220;14.480;2022-12-29T14:50:50;23.10;;;10.60;;
17890;SDS011;9071;48.220;14.480;2022-12-29T14:55:54;21.47;;;9.90;;
17890;SDS011;9071;48.220;14.480;2022-12-29T15:00:57;23.73;;;10.27;;
17890;SDS011;9071;48.220;14.480;2022-12-29T15:06:04;36.23;;;12.27;;
17890;SDS011;9071;48.220;14.480;2022-12-29T15:11:10;29.23;;;13.60;;
17890;SDS011;9071;48.220;14.480;2022-12-29T15:16:21;27.03;;;12.13;;
17890;SDS011;9071;48.220;14.480;2022-12-29T15:21:27;27.57;;;12.40;;
17890;SDS011;9071;48.220;14.480;2022-12-29T15:26:36;28.40;;;14.03;;
17890;SDS011;9071;48.220;14.480;2022-12-29T15:31:45;21.93;;;11.70;;
17890;SDS011;9071;48.220;14.480;2022-12-29T15:36:50;22.83;;;11.40;;
17890;SDS011;9071;48.220;14.480;2022-12-29T15:41:53;27.93;;;12.43;;
17890;SDS011;9071;48.220;14.480;2022-12-29T15:47:01;66.30;;;27.73;;
17890;SDS011;9071;48.220;14.480;2022-12-29T15:52:07;62.97;;;26.33;;
17890;SDS011;9071;48.220;14.480;2022-12-29T15:57:11;55.47;;;23.67;;
17890;SDS011;9071;48.220;14.480;2022-12-29T16:02:23;54.10;;;23.13;;
17890;SDS011;9071;48.220;14.480;2022-12-29T16:07:28;50.63;;;24.17;;
17890;SDS011;9071;48.220;14.480;2022-12-29T16:12:32;50.03;;;24.97;;
17890;SDS011;9071;48.220;14.480;2022-12-29T16:17:41;46.97;;;23.17;;
17890;SDS011;9071;48.220;14.480;2022-12-29T16:22:49;51.50;;;23.40;;
17890;SDS011;9071;48.220;14.480;2022-12-29T16:27:54;43.33;;;21.13;;
17890;SDS011;9071;48.220;14.480;2022-12-29T16:32:57;53.70;;;25.53;;
17890;SDS011;9071;48.220;14.480;2022-12-29T16:38:14;63.03;;;28.13;;
17890;SDS011;9071;48.220;14.480;2022-12-29T16:43:21;54.20;;;26.30;;
17890;SDS011;9071;48.220;14.480;2022-12-29T16:48:24;49.50;;;25.90;;
17890;SDS011;9071;48.220;14.480;2022-12-29T16:53:31;47.23;;;24.73;;
17890;SDS011;9071;48.220;14.480;2022-12-29T16:58:36;45.97;;;24.53;;
17890;SDS011;9071;48.220;14.480;2022-12-29T17:03:39;56.63;;;27.53;;
17890;SDS011;9071;48.220;14.480;2022-12-29T17:08:45;52.10;;;27.77;;
17890;SDS011;9071;48.220;14.480;2022-12-29T17:13:48;51.57;;;28.53;;
17890;SDS011;9071;48.220;14.480;2022-12-29T17:18:50;45.93;;;24.23;;
17890;SDS011;9071;48.220;14.480;2022-12-29T17:23:53;45.33;;;24.70;;
17890;SDS011;9071;48.220;14.480;2022-12-29T17:28:55;52.37;;;25.53;;
17890;SDS011;9071;48.220;14.480;2022-12-29T17:33:57;38.27;;;23.23;;
17890;SDS011;9071;48.220;14.480;2022-12-29T17:39:01;47.30;;;20.70;;
17890;SDS011;9071;48.220;14.480;2022-12-29T17:44:04;42.13;;;22.00;;
17890;SDS011;9071;48.220;14.480;2022-12-29T17:49:08;42.30;;;22.93;;
17890;SDS011;9071;48.220;14.480;2022-12-29T17:54:20;49.27;;;26.33;;
17890;SDS011;9071;48.220;14.480;2022-12-29T17:59:24;42.03;;;21.77;;
17890;SDS011;9071;48.220;14.480;2022-12-29T18:04:26;54.63;;;23.23;;
17890;SDS011;9071;48.220;14.480;2022-12-29T18:09:29;52.57;;;24.50;;
17890;SDS011;9071;48.220;14.480;2022-12-29T18:14:31;49.77;;;26.87;;
17890;SDS011;9071;48.220;14.480;2022-12-29T18:19:34;51.27;;;27.60;;
17890;SDS011;9071;48.220;14.480;2022-12-29T18:24:37;53.23;;;29.20;;
17890;SDS011;9071;48.220;14.480;2022-12-29T18:29:39;66.83;;;37.40;;
17890;SDS011;9071;48.220;14.480;2022-12-29T18:34:41;70.57;;;40.67;;
17890;SDS011;9071;48.220;14.480;2022-12-29T18:39:45;64.40;;;36.20;;
17890;SDS011;9071;48.220;14.480;2022-12-29T18:44:47;58.00;;;34.97;;
17890;SDS011;9071;48.220;14.480;2022-12-29T18:49:49;56.20;;;31.67;;
17890;SDS011;9071;48.220;14.480;2022-12-29T18:54:53;52.33;;;32.17;;
17890;SDS011;9071;48.220;14.480;2022-12-29T18:59:55;259.50;;;64.40;;
17890;SDS011;9071;48.220;14.480;2022-12-29T19:04:58;56.37;;;30.77;;
17890;SDS011;9071;48.220;14.480;2022-12-29T19:10:01;50.47;;;29.30;;
17890;SDS011;9071;48.220;14.480;2022-12-29T19:15:03;43.47;;;27.43;;
17890;SDS011;9071;48.220;14.480;2022-12-29T19:20:09;44.07;;;26.87;;
17890;SDS011;9071;48.220;14.480;2022-12-29T19:25:27;43.17;;;27.20;;
17890;SDS011;9071;48.220;14.480;2022-12-29T19:30:30;48.43;;;30.33;;
17890;SDS011;9071;48.220;14.480;2022-12-29T19:35:34;46.43;;;28.83;;
17890;SDS011;9071;48.220;14.480;2022-12-29T19:40:39;47.10;;;27.20;;
17890;SDS011;9071;48.220;14.480;2022-12-29T19:45:42;43.03;;;26.70;;
17890;SDS011;9071;48.220;14.480;2022-12-29T19:50:45;46.60;;;27.10;;
17890;SDS011;9071;48.220;14.480;2022-12-29T19:55:49;59.03;;;29.80;;
17890;SDS011;9071;48.220;14.480;2022-12-29T20:00:51;67.97;;;33.30;;
17890;SDS011;9071;48.220;14.480;2022-12-29T20:05:53;58.67;;;31.97;;
17890;SDS011;9071;48.220;14.480;2022-12-29T20:10:57;77.17;;;35.23;;
17890;SDS011;9071;48.220;14.480;2022-12-29T20:16:01;67.93;;;33.63;;
17890;SDS011;9071;48.220;14.480;2022-12-29T20:21:04;71.43;;;34.10;;
17890;SDS011;9071;48.220;14.480;2022-12-29T20:26:10;83.20;;;38.53;;
17890;SDS011;9071;48.220;14.480;2022-12-29T20:31:15;94.33;;;41.03;;
17890;SDS011;9071;48.220;14.480;2022-12-29T20:36:19;76.20;;;36.37;;
17890;SDS011;9071;48.220;14.480;2022-12-29T20:41:24;73.77;;;37.43;;
17890;SDS011;9071;48.220;14.480;2022-12-29T20:46:27;63.30;;;36.20;;
17890;SDS011;9071;48.220;14.480;2022-12-29T20:51:29;66.57;;;36.50;;
17890;SDS011;9071;48.220;14.480;2022-12-29T20:56:32;70.80;;;38.10;;
17890;SDS011;9071;48.220;14.480;2022-12-29T21:01:34;73.53;;;36.73;;
17890;SDS011;9071;48.220;14.480;2022-12-29T21:06:37;72.60;;;36.60;;
17890;SDS011;9071;48.220;14.480;2022-12-29T21:11:40;66.90;;;36.27;;
17890;SDS011;9071;48.220;14.480;2022-12-29T21:16:42;67.37;;;36.53;;
17890;SDS011;9071;48.220;14.480;2022-12-29T21:21:46;83.63;;;41.60;;
17890;SDS011;9071;48.220;14.480;2022-12-29T21:26:49;79.33;;;42.07;;
17890;SDS011;9071;48.220;14.480;2022-12-29T21:31:51;81.33;;;45.17;;
17890;SDS011;9071;48.220;14.480;2022-12-29T21:36:53;85.53;;;45.67;;
17890;SDS011;9071;48.220;14.480;2022-12-29T21:41:57;84.73;;;44.70;;
17890;SDS011;9071;48.220;14.480;2022-12-29T21:47:00;84.07;;;44.13;;
17890;SDS011;9071;48.220;14.480;2022-12-29T21:52:02;110.17;;;56.03;;
17890;SDS011;9071;48.220;14.480;2022-12-29T21:57:06;98.83;;;52.53;;
17890;SDS011;9071;48.220;14.480;2022-12-29T22:02:13;103.87;;;53.07;;
17890;SDS011;9071;48.220;14.480;2022-12-29T22:07:36;88.07;;;48.67;;
17890;SDS011;9071;48.220;14.480;2022-12-29T22:12:57;86.67;;;47.30;;
17890;SDS011;9071;48.220;14.480;2022-12-29T22:18:00;82.33;;;44.07;;
17890;SDS011;9071;48.220;14.480;2022-12-29T22:23:03;72.73;;;40.43;;
17890;SDS011;9071;48.220;14.480;2022-12-29T22:28:06;68.23;;;38.30;;
17890;SDS011;9071;48.220;14.480;2022-12-29T22:33:08;63.00;;;37.70;;
17890;SDS011;9071;48.220;14.480;2022-12-29T22:38:10;69.03;;;40.97;;
17890;SDS011;9071;48.220;14.480;2022-12-29T22:43:14;59.53;;;37.20;;
17890;SDS011;9071;48.220;14.480;2022-12-29T22:48:16;64.60;;;38.13;;
17890;SDS011;9071;48.220;14.480;2022-12-29T22:53:18;55.90;;;34.67;;
17890;SDS011;9071;48.220;14.480;2022-12-29T22:58:21;54.03;;;32.00;;
17890;SDS011;9071;48.220;14.480;2022-12-29T23:03:23;52.67;;;31.20;;
17890;SDS011;9071;48.220;14.480;2022-12-29T23:08:26;52.73;;;30.37;;
17890;SDS011;9071;48.220;14.480;2022-12-29T23:13:32;46.30;;;27.77;;
17890;SDS011;9071;48.220;14.480;2022-12-29T23:18:35;47.07;;;28.07;;
17890;SDS011;9071;48.220;14.480;2022-12-29T23:23:37;51.53;;;29.17;;
17890;SDS011;9071;48.220;14.480;2022-12-29T23:28:57;44.73;;;26.23;;
17890;SDS011;9071;48.220;14.480;2022-12-29T23:34:01;37.27;;;23.80;;
17890;SDS011;9071;48.220;14.480;2022-12-29T23:39:04;38.03;;;23.23;;
17890;SDS011;9071;48.220;14.480;2022-12-29T23:44:09;36.03;;;21.13;;
17890;SDS011;9071;48.220;14.480;2022-12-29T23:49:11;41.60;;;24.57;;
17890;SDS011;9071;48.220;14.480;2022-12-29T23:54:13;38.30;;;24.30;;
17890;SDS011;9071;48.220;14.480;2022-12-29T23:59:16;47.20;;;27.73;;
